Time;durP1;ratioP1;P1;durP2;ratioP2;P2;SDS_P1;SDS_P2;PMS_P1;PMS_P2;Temp;Humidity;BMP_temperature;BMP_pressure;BME280_temperature;BME280_humidity;BME280_pressure;Samples;Min_cycle;Max_cycle;Signal;HPM_P1;HPM_P2
2024/04/06 00:00:24;;;;;;;2.20;1.60;;;16.90;49.40;;;18.42;40.66;97587.16;5029546;28;20285;-42
2024/04/06 00:02:51;;;;;;;2.28;1.50;;;16.90;49.30;;;18.40;40.58;97581.16;5012908;28;20053;-42
2024/04/06 00:05:18;;;;;;;5.78;1.70;;;16.90;49.30;;;18.39;40.61;97574.09;5012779;28;20477;-41
2024/04/06 00:07:46;;;;;;;4.00;1.40;;;16.90;49.40;;;18.38;40.66;97572.47;5027143;28;20037;-41
2024/04/06 00:10:14;;;;;;;3.15;1.45;;;16.90;49.60;;;18.37;40.88;97565.41;5029444;28;20041;-41
2024/04/06 00:12:40;;;;;;;2.10;1.45;;;16.90;49.90;;;18.36;40.50;97569.16;5029418;28;20030;-41
2024/04/06 00:15:07;;;;;;;2.22;1.60;;;16.90;49.60;;;18.36;40.41;97568.31;5029555;28;20056;-42
2024/04/06 00:17:34;;;;;;;6.30;1.75;;;16.90;49.50;;;18.35;40.66;97566.66;5029551;28;20041;-41
2024/04/06 00:20:01;;;;;;;2.38;1.42;;;16.90;49.60;;;18.35;40.89;97572.88;5029571;28;20049;-41
2024/04/06 00:22:27;;;;;;;2.35;2.15;;;16.90;49.90;;;18.36;40.91;97573.69;5028836;28;20049;-41
2024/04/06 00:24:55;;;;;;;3.00;1.50;;;16.80;49.80;;;18.36;40.78;97579.09;5013211;28;20038;-41
2024/04/06 00:27:22;;;;;;;2.88;2.47;;;16.80;49.90;;;18.32;40.60;97584.09;5029273;28;20033;-41
2024/04/06 00:29:48;;;;;;;2.20;1.60;;;16.70;50.00;;;18.30;40.79;97588.88;5029356;28;20085;-41
2024/04/06 00:32:15;;;;;;;1.83;1.73;;;16.70;50.20;;;18.27;40.86;97594.66;5028959;28;20053;-41
2024/04/06 00:34:42;;;;;;;2.38;1.70;;;16.70;50.50;;;18.23;40.96;97605.03;5029111;28;20521;-41
2024/04/06 00:37:08;;;;;;;2.00;1.25;;;16.60;50.40;;;18.18;41.02;97602.13;5029234;28;20412;-41
2024/04/06 00:39:35;;;;;;;3.90;2.42;;;16.60;50.50;;;18.14;41.49;97605.47;5029249;28;20045;-41
2024/04/06 00:42:02;;;;;;;2.78;2.00;;;16.60;50.80;;;18.10;41.50;97605.88;5029151;28;20513;-41
2024/04/06 00:44:29;;;;;;;2.90;1.50;;;16.50;50.70;;;18.07;41.16;97598.25;5012406;28;20068;-41
2024/04/06 00:47:01;;;;;;;2.17;1.80;;;16.50;50.80;;;18.02;41.29;97603.41;5012921;28;20038;-41
2024/04/06 00:49:32;;;;;;;2.35;1.50;;;16.50;51.40;;;18.00;41.27;97610.88;5029218;28;20413;-42
2024/04/06 00:51:59;;;;;;;2.90;1.58;;;16.40;50.90;;;17.98;41.38;97607.56;5029109;28;20033;-41
2024/04/06 00:54:26;;;;;;;3.45;1.98;;;16.40;50.80;;;17.95;41.29;97607.16;5028649;28;20045;-41
2024/04/06 00:56:53;;;;;;;1.77;1.40;;;16.30;50.80;;;17.90;41.40;97611.31;5012850;28;20061;-42
2024/04/06 00:59:20;;;;;;;2.55;1.77;;;16.30;51.00;;;17.90;41.40;97607.78;5012617;28;20524;-41
2024/04/06 01:01:48;;;;;;;3.50;2.00;;;16.30;51.00;;;17.89;41.51;97612.38;5028931;28;20041;-42
2024/04/06 01:04:15;;;;;;;3.08;1.50;;;16.30;51.10;;;17.87;41.46;97610.91;5012234;28;20045;-40
2024/04/06 01:06:42;;;;;;;1.73;1.63;;;16.30;50.90;;;17.85;41.64;97612.97;5012786;28;20038;-40
2024/04/06 01:09:09;;;;;;;5.25;1.92;;;16.30;51.00;;;17.83;41.81;97615.84;5028407;28;20037;-40
2024/04/06 01:11:36;;;;;;;3.30;1.60;;;16.30;51.20;;;17.84;41.43;97619.41;5012669;28;20515;-40
2024/04/06 01:14:03;;;;;;;1.80;1.70;;;16.30;50.80;;;17.84;41.48;97609.47;5028562;28;20041;-41
2024/04/06 01:16:30;;;;;;;2.78;1.52;;;16.30;50.60;;;17.85;41.56;97611.09;5031030;28;20053;-41
2024/04/06 01:18:57;;;;;;;2.50;1.40;;;16.40;50.80;;;17.85;41.58;97611.09;5032956;28;20037;-41
2024/04/06 01:21:26;;;;;;;1.52;1.20;;;16.40;50.40;;;17.85;41.54;97610.28;5016301;28;20041;-41
2024/04/06 01:23:53;;;;;;;3.85;1.80;;;16.40;50.50;;;17.86;41.54;97609.25;5032336;28;20496;-41
2024/04/06 01:26:21;;;;;;;2.45;1.48;;;16.50;50.20;;;17.86;41.35;97604.69;5032344;28;20493;-41
2024/04/06 01:28:49;;;;;;;2.15;1.90;;;16.50;50.10;;;17.87;41.42;97602.81;5032565;28;20192;-41
2024/04/06 01:31:16;;;;;;;2.50;1.50;;;16.50;50.00;;;17.86;41.49;97606.56;5032450;28;20038;-41
2024/04/06 01:33:49;;;;;;;2.30;2.08;;;16.50;50.30;;;17.87;41.50;97600.97;5032096;28;20417;-41
2024/04/06 01:36:16;;;;;;;2.40;1.42;;;16.50;50.60;;;17.88;41.59;97599.09;5032083;28;20041;-41
2024/04/06 01:38:43;;;;;;;2.33;1.40;;;16.40;50.40;;;17.88;41.57;97612.56;5032165;28;20064;-41
2024/04/06 01:41:10;;;;;;;3.28;1.40;;;16.50;50.50;;;17.86;41.68;97609.25;5032535;28;20056;-41
2024/04/06 01:43:36;;;;;;;1.70;1.30;;;16.50;50.70;;;17.85;41.82;97611.09;5031697;28;20042;-41
2024/04/06 01:46:03;;;;;;;1.77;1.48;;;16.40;50.70;;;17.84;41.80;97614.03;5032292;28;20041;-41
2024/04/06 01:48:30;;;;;;;2.22;1.73;;;16.40;50.70;;;17.82;41.75;97603.44;5015523;28;20045;-41
2024/04/06 01:50:56;;;;;;;4.13;1.40;;;16.40;50.60;;;17.80;42.01;97608.19;5032343;28;20382;-42
2024/04/06 01:53:23;;;;;;;4.97;1.58;;;16.40;50.90;;;17.79;41.78;97606.53;5031543;28;20517;-41
2024/04/06 01:55:50;;;;;;;2.13;1.50;;;16.30;51.10;;;17.78;41.82;97604.88;4999400;28;20052;-41
2024/04/06 01:58:16;;;;;;;1.58;1.48;;;16.30;51.20;;;17.77;41.99;97607.78;5032041;28;20045;-41
2024/04/06 02:00:43;;;;;;;1.83;1.33;;;16.30;51.40;;;17.74;42.12;97605.47;5031839;28;20041;-41
2024/04/06 02:03:10;;;;;;;2.50;1.50;;;16.30;51.40;;;17.71;42.12;97601.34;5031626;28;20037;-41
2024/04/06 02:05:37;;;;;;;1.88;1.30;;;16.30;51.60;;;17.70;42.21;97605.09;5031836;28;20034;-42
2024/04/06 02:08:04;;;;;;;2.70;1.55;;;16.30;51.60;;;17.69;42.20;97608.81;5030696;28;20373;-42
2024/04/06 02:10:30;;;;;;;3.70;1.95;;;16.30;51.50;;;17.69;42.29;97598.03;5031823;28;20505;-42
2024/04/06 02:12:57;;;;;;;4.65;2.00;;;16.30;51.70;;;17.69;42.45;97601.56;5031076;28;20030;-42
2024/04/06 02:15:24;;;;;;;2.75;1.50;;;16.20;52.00;;;17.69;42.58;97595.34;5031928;28;20045;-42
2024/04/06 02:17:52;;;;;;;2.75;1.73;;;16.10;52.30;;;17.66;42.39;97584.97;5026738;28;20038;-42
2024/04/06 02:20:19;;;;;;;5.30;1.75;;;16.00;52.20;;;17.65;42.46;97583.34;5031666;28;20102;-42
2024/04/06 02:22:45;;;;;;;3.83;1.92;;;16.10;52.40;;;17.61;42.47;97582.94;5031316;28;20040;-42
2024/04/06 02:25:12;;;;;;;2.67;1.73;;;16.00;52.40;;;17.58;42.64;97580.63;5031399;28;20042;-42
2024/04/06 02:27:39;;;;;;;2.92;1.42;;;16.00;52.20;;;17.55;42.65;97586.44;5031175;28;20521;-42
2024/04/06 02:30:06;;;;;;;5.20;1.88;;;16.00;52.60;;;17.52;42.77;97573.41;5031712;28;20349;-42
2024/04/06 02:32:33;;;;;;;4.05;1.67;;;15.90;52.90;;;17.50;42.90;97578.16;5030145;28;20057;-41
2024/04/06 02:35:00;;;;;;;3.30;1.40;;;15.90;53.10;;;17.48;42.71;97580.22;5031435;28;20124;-42
2024/04/06 02:37:26;;;;;;;1.75;1.40;;;15.80;53.30;;;17.44;42.82;97574.44;5030900;28;20053;-42
2024/04/06 02:39:53;;;;;;;3.45;1.75;;;15.80;53.10;;;17.42;42.94;97570.31;5031363;28;20037;-42
2024/04/06 02:42:20;;;;;;;1.73;1.50;;;15.80;53.30;;;17.41;43.07;97565.94;5014220;28;20048;-42
2024/04/06 02:44:46;;;;;;;3.00;1.65;;;15.80;53.60;;;17.40;43.42;97565.13;5031154;28;20045;-42
2024/04/06 02:47:13;;;;;;;2.25;1.52;;;15.80;53.70;;;17.40;43.39;97561.59;5031225;28;20512;-42
2024/04/06 02:49:41;;;;;;;2.53;1.83;;;15.80;53.80;;;17.37;43.56;97568.25;5031154;28;20053;-42
2024/04/06 02:52:07;;;;;;;2.60;1.60;;;15.80;54.00;;;17.37;43.35;97565.56;5030618;28;20037;-42
2024/04/06 02:54:34;;;;;;;3.88;1.75;;;15.70;54.20;;;17.37;43.38;97562.00;5031010;28;20040;-42
2024/04/06 02:57:01;;;;;;;2.97;1.70;;;15.80;54.20;;;17.34;43.71;97568.66;5029773;28;20072;-42
2024/04/06 02:59:27;;;;;;;2.00;1.58;;;15.70;54.60;;;17.32;43.79;97558.09;5030893;28;20042;-41
2024/04/06 03:01:54;;;;;;;2.22;1.70;;;15.70;54.60;;;17.31;43.61;97563.66;4998345;28;20041;-41
2024/04/06 03:04:21;;;;;;;2.20;1.70;;;15.70;54.70;;;17.31;43.81;97575.28;5030552;28;20044;-40
2024/04/06 03:06:47;;;;;;;2.92;1.77;;;15.70;54.60;;;17.29;43.72;97579.19;5028159;28;20497;-40
2024/04/06 03:09:15;;;;;;;2.63;2.03;;;15.70;54.40;;;17.27;43.79;97582.09;5029561;28;20038;-40
2024/04/06 03:11:42;;;;;;;3.22;1.67;;;15.70;54.60;;;17.26;43.94;97579.59;4998325;28;20045;-40
2024/04/06 03:14:09;;;;;;;2.40;1.58;;;15.70;54.60;;;17.23;43.93;97580.00;5030362;28;20064;-40
2024/04/06 03:16:35;;;;;;;1.92;1.38;;;15.70;54.70;;;17.21;43.84;97587.47;5030527;28;20053;-40
2024/04/06 03:19:03;;;;;;;2.78;1.80;;;15.60;54.40;;;17.17;43.70;97583.53;5028319;28;20041;-40
2024/04/06 03:21:29;;;;;;;2.92;1.80;;;15.60;54.30;;;17.09;43.97;97588.06;5030403;28;20041;-40
2024/04/06 03:23:56;;;;;;;7.03;1.67;;;15.60;54.40;;;17.05;44.08;97583.28;5029904;28;20049;-40
2024/04/06 03:26:23;;;;;;;3.13;1.50;;;15.60;54.50;;;17.01;44.19;97588.25;5030360;28;20154;-40
2024/04/06 03:28:51;;;;;;;2.47;1.45;;;15.50;54.90;;;17.00;44.05;97586.63;5022589;28;20053;-40
2024/04/06 03:31:18;;;;;;;2.25;1.73;;;15.50;54.90;;;16.97;44.18;97584.31;5030488;28;20409;-40
2024/04/06 03:33:45;;;;;;;3.92;1.58;;;15.40;54.60;;;16.96;44.35;97582.66;5029715;28;20082;-40
2024/04/06 03:36:12;;;;;;;2.75;1.60;;;15.40;54.70;;;16.95;44.36;97593.63;5030161;28;20068;-40
2024/04/06 03:38:38;;;;;;;2.83;1.42;;;15.40;55.00;;;16.92;44.41;97584.09;5012979;28;20266;-40
2024/04/06 03:41:06;;;;;;;5.20;2.17;;;15.40;55.90;;;16.89;44.39;97585.34;5030234;28;20397;-40
2024/04/06 03:43:33;;;;;;;2.10;1.60;;;15.40;55.10;;;16.89;44.39;97579.94;5029519;28;20045;-40
2024/04/06 03:45:59;;;;;;;2.67;1.92;;;15.40;55.20;;;16.89;44.50;97576.44;5030048;28;20086;-40
2024/04/06 03:48:30;;;;;;;3.50;1.88;;;15.40;55.20;;;16.89;44.44;97571.88;5029821;28;20050;-40
2024/04/06 03:50:57;;;;;;;2.08;1.83;;;15.40;55.30;;;16.90;44.55;97570.88;5029701;28;20053;-40
2024/04/06 03:53:32;;;;;;;2.33;1.48;;;15.40;55.20;;;16.89;44.84;97574.56;5029593;28;20053;-40
2024/04/06 03:55:58;;;;;;;1.85;1.75;;;15.40;56.00;;;16.87;44.84;97586.56;5022867;28;20037;-40
2024/04/06 03:58:25;;;;;;;3.22;1.55;;;15.30;55.60;;;16.84;45.00;97579.72;5029924;28;20049;-40
2024/04/06 04:00:53;;;;;;;3.90;2.08;;;15.30;55.90;;;16.84;44.75;97592.34;5005395;28;20041;-40
2024/04/06 04:03:20;;;;;;;2.53;1.80;;;15.40;55.50;;;16.81;44.72;97587.31;5029477;28;20064;-40
2024/04/06 04:05:48;;;;;;;2.25;1.77;;;15.40;55.30;;;16.80;44.82;97599.13;5029677;28;20053;-40
2024/04/06 04:08:15;;;;;;;1.73;1.38;;;15.40;55.20;;;16.76;44.92;97587.94;5029509;28;20041;-40
2024/04/06 04:10:41;;;;;;;3.42;1.67;;;15.40;55.60;;;16.72;44.88;97590.19;5029584;28;20034;-40
2024/04/06 04:13:12;;;;;;;3.90;1.98;;;15.30;55.40;;;16.70;45.08;97586.88;5028329;28;20045;-40
2024/04/06 04:15:41;;;;;;;1.83;1.30;;;15.30;55.60;;;16.69;44.88;97587.09;5029399;28;20099;-40
2024/04/06 04:18:09;;;;;;;3.03;1.52;;;15.30;55.30;;;16.67;44.87;97576.56;5013321;28;20044;-40
2024/04/06 04:20:36;;;;;;;3.28;1.85;;;15.30;55.20;;;16.67;45.17;97581.94;5013116;28;20144;-40
2024/04/06 04:23:03;;;;;;;3.47;1.73;;;15.40;55.20;;;16.69;45.01;97584.41;5028581;28;20064;-40
2024/04/06 04:25:30;;;;;;;3.28;1.63;;;15.30;55.20;;;16.69;44.87;97593.31;5029500;28;20052;-40
2024/04/06 04:28:00;;;;;;;2.40;1.60;;;15.30;55.40;;;16.69;45.06;97601.38;5029157;28;20041;-40
2024/04/06 04:30:27;;;;;;;3.55;1.70;;;15.30;55.50;;;16.67;44.95;97600.75;5029611;28;20053;-40
2024/04/06 04:32:54;;;;;;;1.85;1.58;;;15.30;55.30;;;16.65;44.89;97592.06;5028994;28;20037;-40
2024/04/06 04:35:21;;;;;;;2.42;1.55;;;15.30;56.00;;;16.63;45.18;97593.28;5029379;28;20048;-40
2024/04/06 04:37:48;;;;;;;4.40;3.30;;;15.20;55.40;;;16.60;45.06;97599.06;5028932;28;20052;-40
2024/04/06 04:40:14;;;;;;;3.00;1.83;;;15.20;55.40;;;16.58;45.17;97593.88;5029524;28;20412;-40
2024/04/06 04:42:41;;;;;;;2.78;1.75;;;15.20;55.50;;;16.58;45.03;97595.75;5028899;28;20045;-40
2024/04/06 04:45:13;;;;;;;2.38;1.70;;;15.20;55.60;;;16.56;45.12;97598.63;4996464;28;20041;-40
2024/04/06 04:47:41;;;;;;;2.35;1.80;;;15.20;55.60;;;16.51;45.26;97596.53;5028912;28;20042;-40
2024/04/06 04:50:11;;;;;;;1.67;1.50;;;15.10;56.40;;;16.51;45.42;97598.41;5012971;28;20033;-40
2024/04/06 04:52:38;;;;;;;2.10;1.40;;;15.10;55.70;;;16.49;45.18;97595.06;5016103;28;20078;-40
2024/04/06 04:55:05;;;;;;;3.40;1.55;;;15.10;55.50;;;16.48;45.33;97605.00;5033204;28;20033;-40
2024/04/06 04:57:31;;;;;;;3.60;1.50;;;15.10;55.60;;;16.48;45.16;97604.19;5033462;28;20049;-40
2024/04/06 04:59:58;;;;;;;4.97;1.73;;;15.10;55.40;;;16.45;45.15;97597.34;5033196;28;20376;-40
2024/04/06 05:02:25;;;;;;;5.47;2.20;;;15.20;55.10;;;16.48;45.30;97596.94;5032655;28;20048;-40
2024/04/06 05:04:52;;;;;;;2.50;1.77;;;15.20;55.30;;;16.51;45.27;97604.59;5032746;28;20056;-40
2024/04/06 05:07:19;;;;;;;4.18;1.85;;;15.20;55.20;;;16.51;45.09;97601.09;5033029;28;20034;-40
2024/04/06 05:09:47;;;;;;;3.13;1.70;;;15.20;55.20;;;16.50;45.09;97602.94;5032954;28;20048;-40
2024/04/06 05:12:14;;;;;;;2.03;1.50;;;15.20;54.90;;;16.51;45.26;97609.13;5032814;28;20041;-40
2024/04/06 05:14:41;;;;;;;1.58;1.40;;;15.20;54.90;;;16.52;45.04;97613.50;5031978;28;20045;-40
2024/04/06 05:17:08;;;;;;;2.83;1.77;;;15.20;54.90;;;16.53;45.08;97613.28;5032947;28;20104;-40
2024/04/06 05:19:35;;;;;;;4.18;1.85;;;15.20;54.80;;;16.54;44.98;97612.25;5032817;28;20037;-40
2024/04/06 05:22:02;;;;;;;2.47;1.55;;;15.20;54.90;;;16.57;45.01;97610.19;5032539;28;20416;-40
2024/04/06 05:24:29;;;;;;;3.13;1.63;;;15.20;55.00;;;16.56;45.08;97614.75;5031805;28;20053;-40
2024/04/06 05:26:58;;;;;;;1.80;1.40;;;15.20;54.90;;;16.57;45.21;97616.41;5031510;28;20045;-40
2024/04/06 05:29:25;;;;;;;2.20;1.55;;;15.20;55.30;;;16.59;44.95;97619.72;5032055;28;20047;-40
2024/04/06 05:31:56;;;;;;;2.83;1.58;;;15.20;55.20;;;16.59;45.26;97635.00;5032072;28;20042;-40
2024/04/06 05:34:23;;;;;;;2.60;1.67;;;15.20;55.30;;;16.59;44.81;97637.69;5031703;28;20037;-40
2024/04/06 05:36:53;;;;;;;4.32;1.60;;;15.20;55.00;;;16.58;44.81;97630.69;5032166;28;20052;-40
2024/04/06 05:39:19;;;;;;;2.47;1.40;;;15.20;54.90;;;16.57;45.04;97637.91;5032040;28;20037;-40
2024/04/06 05:41:47;;;;;;;3.60;1.60;;;15.30;54.70;;;16.61;44.75;97641.84;5031871;28;20386;-39
2024/04/06 05:44:14;;;;;;;2.95;1.42;;;15.30;54.60;;;16.63;44.93;97644.34;5013137;28;20045;-39
2024/04/06 05:46:41;;;;;;;2.50;1.52;;;15.30;54.60;;;16.66;44.75;97646.63;5030710;28;20064;-39
2024/04/06 05:49:07;;;;;;;2.72;1.60;;;15.40;54.30;;;16.69;44.93;97644.38;5031027;28;20060;-39
2024/04/06 05:51:34;;;;;;;2.80;1.70;;;15.40;54.30;;;16.73;44.55;97645.63;5030640;28;20045;-40
2024/04/06 05:54:01;;;;;;;1.90;1.70;;;15.50;54.10;;;16.77;44.56;97642.53;5029921;28;20397;-39
2024/04/06 05:56:28;;;;;;;2.40;1.50;;;15.50;54.10;;;16.81;44.67;97644.63;5030413;28;20033;-39
2024/04/06 05:58:55;;;;;;;2.80;1.48;;;15.60;54.00;;;16.86;44.52;97649.44;5030597;28;20044;-39
2024/04/06 06:01:22;;;;;;;2.38;1.50;;;15.60;53.70;;;16.90;44.54;97645.31;5030537;28;20477;-40
2024/04/06 06:03:48;;;;;;;3.20;1.60;;;15.60;53.90;;;16.94;44.58;97646.56;5030490;28;20041;-41
2024/04/06 06:06:15;;;;;;;2.47;1.50;;;15.70;54.10;;;16.99;44.89;97646.78;5030941;28;20058;-40
2024/04/06 06:08:42;;;;;;;4.30;1.75;;;15.70;54.50;;;17.04;44.88;97647.03;5028460;28;20045;-40
2024/04/06 06:11:08;;;;;;;3.42;2.08;;;15.70;54.60;;;17.07;44.80;97643.91;5030849;28;20048;-40
2024/04/06 06:13:35;;;;;;;1.90;1.45;;;15.80;54.50;;;17.11;44.84;97637.09;5030354;28;20037;-40
2024/04/06 06:16:02;;;;;;;2.47;1.60;;;15.80;54.60;;;17.17;44.74;97637.31;5030744;28;20096;-40
2024/04/06 06:18:29;;;;;;;2.05;1.35;;;15.80;54.60;;;17.19;44.84;97627.19;5030676;28;20045;-40
2024/04/06 06:20:55;;;;;;;3.50;1.52;;;15.90;54.80;;;17.24;44.86;97630.09;5030565;28;20052;-40
2024/04/06 06:23:22;;;;;;;2.83;1.85;;;15.90;54.80;;;17.25;44.66;97635.28;5030082;28;20041;-40
2024/04/06 06:25:49;;;;;;;2.13;1.40;;;16.00;54.40;;;17.26;44.58;97628.84;5030952;28;20052;-40
2024/04/06 06:28:15;;;;;;;4.70;1.85;;;16.00;54.30;;;17.29;44.57;97635.69;5030695;28;20516;-40
2024/04/06 06:30:42;;;;;;;5.10;1.75;;;16.00;54.20;;;17.29;44.78;97636.53;5030351;28;20063;-39
2024/04/06 06:33:09;;;;;;;2.83;1.67;;;16.00;54.40;;;17.32;44.81;97638.78;5013044;28;20049;-39
2024/04/06 06:35:36;;;;;;;2.92;1.75;;;16.00;54.80;;;17.34;45.11;97641.28;5030239;28;20041;-39
2024/04/06 06:38:04;;;;;;;7.50;2.08;;;16.00;55.00;;;17.38;45.28;97641.72;5030328;28;20056;-40
2024/04/06 06:40:31;;;;;;;2.75;1.60;;;16.00;55.40;;;17.38;45.46;97644.41;5030389;28;20054;-40
2024/04/06 06:42:58;;;;;;;3.30;1.70;;;16.00;55.90;;;17.39;45.57;97652.28;4994933;28;1012073;-40
2024/04/06 06:45:24;;;;;;;2.05;1.70;;;16.10;56.00;;;17.43;45.46;97656.22;5031605;28;20045;-40
2024/04/06 06:47:51;;;;;;;3.30;1.85;;;16.10;55.90;;;17.45;45.50;97656.00;5013188;28;20056;-39
2024/04/06 06:50:18;;;;;;;3.65;1.77;;;16.10;55.90;;;17.49;45.51;97666.16;5025269;28;20037;-40
2024/04/06 06:52:44;;;;;;;2.70;1.90;;;16.10;55.90;;;17.54;45.65;97664.72;5014043;28;20052;-40
2024/04/06 06:55:11;;;;;;;4.13;2.30;;;16.20;56.00;;;17.55;45.63;97674.47;5030937;28;20038;-40
2024/04/06 06:57:38;;;;;;;2.30;1.58;;;16.20;55.80;;;17.57;45.49;97667.00;5031124;28;20048;-39
2024/04/06 07:00:06;;;;;;;2.65;1.65;;;16.30;55.70;;;17.61;45.46;97673.63;5014614;28;20042;-39
2024/04/06 07:02:32;;;;;;;8.93;2.55;;;16.30;55.80;;;17.63;45.63;97674.25;5030634;28;20053;-39
2024/04/06 07:04:59;;;;;;;2.13;1.58;;;16.30;55.80;;;17.64;45.54;97682.13;5030833;28;20037;-39
2024/04/06 07:07:26;;;;;;;2.63;1.80;;;16.40;55.60;;;17.66;45.41;97677.38;5030971;28;20124;-39
2024/04/06 07:09:52;;;;;;;2.83;1.73;;;16.40;55.40;;;17.67;45.38;97678.19;5030595;28;20048;-39
2024/04/06 07:12:19;;;;;;;2.47;1.90;;;16.40;55.00;;;17.71;45.34;97676.72;5030745;28;20041;-39
2024/04/06 07:14:46;;;;;;;3.40;1.88;;;16.50;55.20;;;17.73;45.13;97674.66;5029436;28;20505;-39
2024/04/06 07:17:12;;;;;;;2.00;1.70;;;16.50;54.70;;;17.75;44.80;97666.38;5030966;28;20303;-40
2024/04/06 07:19:39;;;;;;;2.88;2.10;;;16.50;54.40;;;17.76;44.64;97658.09;5030781;28;20421;-39
2024/04/06 07:22:06;;;;;;;1.77;1.50;;;16.50;54.30;;;17.81;44.74;97658.28;5030390;28;20049;-39
2024/04/06 07:24:32;;;;;;;2.28;1.52;;;16.60;54.10;;;17.85;44.80;97661.44;5030222;28;20045;-39
2024/04/06 07:26:59;;;;;;;3.60;1.65;;;16.60;54.20;;;17.88;44.83;97671.81;5030730;28;20049;-39
2024/04/06 07:29:26;;;;;;;4.22;1.88;;;16.60;54.10;;;17.89;44.73;97666.22;5030458;28;20182;-39
2024/04/06 07:31:52;;;;;;;2.78;1.80;;;16.70;53.90;;;17.90;44.63;97678.63;5022075;28;20045;-39
2024/04/06 07:34:19;;;;;;;5.63;2.20;;;16.70;53.80;;;17.95;44.65;97691.50;5021948;28;20037;-39
2024/04/06 07:36:46;;;;;;;7.60;1.77;;;16.70;53.90;;;17.98;44.56;97693.75;5025526;28;20054;-39
2024/04/06 07:39:13;;;;;;;1.88;1.30;;;16.80;53.90;;;17.99;44.57;97692.75;5023395;28;20042;-39
2024/04/06 07:41:39;;;;;;;3.75;2.15;;;16.80;54.60;;;18.03;44.59;97696.69;5025051;28;20614;-39
2024/04/06 07:44:06;;;;;;;2.38;1.58;;;16.80;53.90;;;18.05;44.71;97689.22;5019885;28;20049;-39
2024/04/06 07:46:33;;;;;;;1.88;1.40;;;16.80;53.90;;;18.13;44.63;97687.34;5020975;28;20053;-40
2024/04/06 07:48:59;;;;;;;2.03;1.60;;;16.90;54.00;;;18.18;44.64;97677.56;5022264;28;20045;-39
2024/04/06 07:51:26;;;;;;;3.38;1.80;;;17.00;53.90;;;18.24;44.68;97684.84;5021615;28;20216;-39
2024/04/06 07:53:53;;;;;;;3.35;1.85;;;17.00;54.10;;;18.30;44.95;97686.72;5023004;28;20516;-40
2024/04/06 07:56:20;;;;;;;2.45;2.00;;;17.10;54.30;;;18.38;44.91;97687.50;5023145;28;20037;-39
2024/04/06 07:58:46;;;;;;;2.75;1.85;;;17.20;54.40;;;18.45;45.04;97691.84;5024285;28;20046;-39
2024/04/06 08:01:13;;;;;;;3.67;1.83;;;17.30;54.70;;;18.50;45.30;97691.22;5025358;28;20049;-39
2024/04/06 08:03:40;;;;;;;3.47;1.80;;;17.30;55.00;;;18.55;45.24;97694.09;5024314;28;20048;-39
2024/04/06 08:06:06;;;;;;;2.63;2.08;;;17.40;55.00;;;18.64;45.36;97697.41;5025153;28;20045;-39
2024/04/06 08:08:36;;;;;;;2.78;1.80;;;17.40;55.10;;;18.70;45.33;97699.25;5025760;28;20413;-39
2024/04/06 08:11:02;;;;;;;3.03;1.65;;;17.50;55.30;;;18.76;44.95;97692.19;5025096;28;20455;-39
2024/04/06 08:13:29;;;;;;;3.42;1.92;;;17.60;54.70;;;18.84;44.97;97686.59;5024605;28;20042;-39
2024/04/06 08:15:56;;;;;;;3.33;1.85;;;17.60;54.60;;;18.87;44.95;97691.56;5024965;28;20041;-39
2024/04/06 08:18:22;;;;;;;4.03;1.90;;;17.70;54.60;;;18.92;44.85;97688.22;5025610;28;20048;-39
2024/04/06 08:20:49;;;;;;;2.88;1.85;;;17.80;54.40;;;18.98;44.73;97687.34;5025165;28;20053;-39
2024/04/06 08:23:17;;;;;;;5.10;2.00;;;17.80;54.30;;;19.03;44.71;97680.28;5024613;28;20058;-39
2024/04/06 08:25:45;;;;;;;5.00;2.10;;;17.90;54.10;;;19.07;44.66;97673.41;5021433;28;20041;-39
2024/04/06 08:28:12;;;;;;;3.60;1.90;;;17.90;54.10;;;19.10;44.67;97666.78;5020054;28;20053;-39
2024/04/06 08:30:39;;;;;;;1.63;1.48;;;18.00;54.00;;;19.13;44.51;97663.63;5023499;28;20619;-39
2024/04/06 08:33:06;;;;;;;2.78;1.90;;;18.00;54.10;;;19.18;44.56;97665.69;5020639;28;20041;-39
2024/04/06 08:35:36;;;;;;;3.92;2.08;;;18.00;54.10;;;19.23;44.54;97665.88;5020743;28;20050;-40
2024/04/06 08:38:07;;;;;;;3.70;1.90;;;18.10;53.90;;;19.27;44.60;97657.13;5007209;28;20538;-40
2024/04/06 08:40:41;;;;;;;3.67;1.65;;;18.10;54.00;;;19.32;44.67;97664.56;5023620;28;20041;-40
2024/04/06 08:43:12;;;;;;;5.88;1.90;;;18.20;53.60;;;19.36;44.62;97654.19;5005896;28;20412;-40
2024/04/06 08:45:40;;;;;;;3.45;2.22;;;18.20;53.70;;;19.40;44.11;97661.59;5022332;28;20033;-40
2024/04/06 08:48:10;;;;;;;2.47;1.75;;;18.20;53.10;;;19.48;44.17;97668.63;5026638;28;20033;-39
2024/04/06 08:50:37;;;;;;;2.53;2.17;;;18.30;53.10;;;19.55;44.25;97660.50;5029323;28;20611;-40
2024/04/06 08:53:07;;;;;;;4.35;2.45;;;18.40;53.40;;;19.58;44.53;97660.88;5028968;28;20060;-40
2024/04/06 08:55:34;;;;;;;3.65;1.67;;;18.40;55.10;;;19.61;44.93;97655.03;5029007;28;20256;-36
2024/04/06 08:58:00;;;;;;;3.80;2.17;;;18.50;54.60;;;19.65;44.54;97653.53;5029054;28;20056;-39
2024/04/06 09:00:28;;;;;;;2.55;1.88;;;18.50;54.20;;;19.68;44.78;97647.72;5029284;28;20044;-39
2024/04/06 09:02:55;;;;;;;4.00;2.13;;;18.50;54.30;;;19.76;44.69;97656.63;5012447;28;20057;-38
2024/04/06 09:05:21;;;;;;;2.70;2.08;;;18.60;54.10;;;19.79;44.46;97653.47;5021140;28;20037;-39
2024/04/06 09:07:51;;;;;;;2.10;1.92;;;18.60;53.80;;;19.86;44.38;97640.75;5029441;28;20049;-31
2024/04/06 09:10:23;;;;;;;3.50;1.80;;;18.70;53.70;;;19.93;44.29;97636.13;5024910;28;20044;-33
2024/04/06 09:12:50;;;;;;;4.30;2.28;;;18.80;53.70;;;20.00;44.16;97631.47;5028556;28;20034;-33
2024/04/06 09:15:17;;;;;;;2.58;1.80;;;18.90;53.30;;;20.06;43.75;97625.22;5028818;28;20050;-36
2024/04/06 09:17:44;;;;;;;4.20;2.10;;;19.00;52.60;;;20.12;43.63;97628.03;5029016;28;20041;-35
2024/04/06 09:20:12;;;;;;;3.47;1.85;;;19.10;52.30;;;20.19;43.44;97631.53;5029032;28;20140;-34
2024/04/06 09:22:42;;;;;;;2.50;1.65;;;19.10;52.00;;;20.23;42.96;97630.84;5028730;28;20037;-38
2024/04/06 09:25:09;;;;;;;2.83;1.65;;;19.20;51.20;;;20.27;42.73;97625.81;5028951;28;20038;-36
2024/04/06 09:27:44;;;;;;;3.17;2.05;;;19.20;51.10;;;20.32;42.76;97628.69;5028828;28;20050;-35
2024/04/06 09:30:11;;;;;;;3.08;1.92;;;19.30;51.00;;;20.40;42.90;97624.88;5028864;28;20041;-34
2024/04/06 09:32:42;;;;;;;2.40;1.95;;;19.30;51.10;;;20.48;42.63;97627.25;5012258;28;20040;-34
2024/04/06 09:35:11;;;;;;;1.70;1.50;;;19.40;50.40;;;20.56;41.99;97635.06;5012307;28;20041;-35
2024/04/06 09:37:44;;;;;;;5.60;3.78;;;19.60;46.80;;;20.63;41.35;97635.84;5031592;28;20049;-48
2024/04/06 09:40:13;;;;;;;2.08;1.75;;;19.60;48.50;;;20.68;41.15;97628.94;5033096;28;20056;-48
2024/04/06 09:42:40;;;;;;;2.75;2.00;;;19.60;49.00;;;20.75;40.80;97629.69;5015825;28;20106;-48
2024/04/06 09:45:07;;;;;;;2.42;1.70;;;19.60;48.40;;;20.79;40.76;97612.78;5015885;28;20041;-48
2024/04/06 09:47:35;;;;;;;2.08;1.52;;;19.70;48.10;;;20.85;40.78;97611.03;5031527;28;20505;-48
2024/04/06 09:50:02;;;;;;;1.92;1.55;;;19.70;48.10;;;20.92;40.05;97606.38;5014474;28;20052;-48
2024/04/06 09:52:29;;;;;;;4.88;1.67;;;19.80;47.10;;;20.95;39.54;97607.78;5031561;28;20053;-49
2024/04/06 09:54:56;;;;;;;2.40;1.70;;;19.80;46.30;;;20.97;38.86;97601.09;5032046;28;20049;-48
2024/04/06 09:57:24;;;;;;;2.92;1.70;;;19.80;45.10;;;21.07;38.98;97605.94;5015856;28;20037;-48
2024/04/06 10:00:03;;;;;;;4.72;1.92;;;19.90;45.60;;;21.17;38.69;97597.28;5015733;28;20049;-48
2024/04/06 10:02:34;;;;;;;2.60;1.63;;;20.10;44.20;;;21.24;38.08;97600.72;5024449;28;20050;-48
2024/04/06 10:05:05;;;;;;;2.58;1.50;;;20.10;44.20;;;21.29;37.79;97595.44;5031996;28;20050;-48
2024/04/06 10:07:34;;;;;;;3.83;1.70;;;20.20;43.90;;;21.34;37.86;97597.44;5021244;28;20061;-48
2024/04/06 10:10:06;;;;;;;2.75;1.63;;;20.20;43.50;;;21.45;38.16;97593.16;5028817;28;20049;-48
2024/04/06 10:12:51;;;;;;;2.28;1.65;;;20.30;44.20;;;21.50;37.62;97590.56;5007963;28;20046;-48
2024/04/06 10:15:20;;;;;;;2.03;1.50;;;20.40;41.40;;;21.59;37.16;97586.47;5014679;28;20034;-48
2024/04/06 10:17:53;;;;;;;5.60;1.77;;;20.50;42.90;;;21.65;36.96;97582.81;5032025;28;20049;-48
2024/04/06 10:20:23;;;;;;;1.90;1.50;;;20.50;40.80;;;21.70;36.63;97584.84;5031854;28;20057;-48